Time;durP1;ratioP1;P1;durP2;ratioP2;P2;SDS_P1;SDS_P2;PMS_P1;PMS_P2;Temp;Humidity;BMP_temperature;BMP_pressure;BME280_temperature;BME280_humidity;BME280_pressure;Samples;Min_cycle;Max_cycle;Signal;HPM_P1;HPM_P2
2023/09/27 00:01:26;;;;;;;1023.37;947.77;;;12.30;99.90;;;;;;5052259;28;20562;-80
2023/09/27 00:03:53;;;;;;;1017.07;939.87;;;12.30;99.90;;;;;;5053228;28;20535;-80
2023/09/27 00:06:20;;;;;;;1001.77;932.87;;;12.30;99.90;;;;;;5052890;28;20509;-80
2023/09/27 00:08:47;;;;;;;994.37;926.40;;;12.20;99.90;;;;;;5052952;28;20454;-80
2023/09/27 00:11:14;;;;;;;992.23;925.73;;;12.10;99.90;;;;;;5052289;28;20483;-80
2023/09/27 00:13:41;;;;;;;980.80;913.93;;;12.00;99.90;;;;;;5052828;28;20486;-80
2023/09/27 00:16:09;;;;;;;965.07;899.87;;;12.00;99.90;;;;;;5052369;28;20534;-80
2023/09/27 00:18:36;;;;;;;976.77;910.60;;;11.90;99.90;;;;;;5052741;28;20542;-80
2023/09/27 00:21:03;;;;;;;986.63;915.70;;;11.80;99.90;;;;;;5052330;28;20941;-80
2023/09/27 00:23:30;;;;;;;999.60;922.50;;;11.90;99.90;;;;;;5052822;28;20495;-80
2023/09/27 00:25:57;;;;;;;1002.37;922.10;;;12.00;99.90;;;;;;5052499;28;20473;-80
2023/09/27 00:28:24;;;;;;;1009.90;925.07;;;12.10;99.90;;;;;;5052300;28;20447;-79
2023/09/27 00:30:51;;;;;;;1017.87;932.47;;;12.20;99.90;;;;;;5052233;28;20457;-79
2023/09/27 00:33:19;;;;;;;1023.50;939.33;;;12.30;99.90;;;;;;5052515;28;20542;-80
2023/09/27 00:35:50;;;;;;;1029.73;946.87;;;12.40;99.90;;;;;;5052209;28;20959;-80
2023/09/27 00:38:17;;;;;;;1031.43;951.13;;;12.50;99.90;;;;;;5052513;28;20466;-80
2023/09/27 00:40:48;;;;;;;1039.73;960.40;;;12.50;99.90;;;;;;5051516;28;20814;-80
2023/09/27 00:43:34;;;;;;;1031.07;954.20;;;12.50;99.90;;;;;;5051960;28;20501;-80
2023/09/27 00:46:03;;;;;;;997.87;928.67;;;12.50;99.90;;;;;;5052220;28;20443;-80
2023/09/27 00:48:32;;;;;;;967.53;902.73;;;12.40;99.90;;;;;;5052074;28;20850;-80
2023/09/27 00:51:04;;;;;;;980.77;912.27;;;12.20;99.90;;;;;;5051644;28;20443;-80
2023/09/27 00:53:33;;;;;;;1003.67;928.00;;;12.00;99.90;;;;;;5051840;28;20447;-80
2023/09/27 00:56:01;;;;;;;996.90;924.20;;;12.00;99.90;;;;;;5052077;28;20534;-80
2023/09/27 00:58:32;;;;;;;997.93;924.93;;;12.00;99.90;;;;;;5052103;28;20443;-79
2023/09/27 01:00:59;;;;;;;974.73;906.43;;;11.90;99.90;;;;;;5051335;28;20818;-79
2023/09/27 01:03:26;;;;;;;960.57;895.53;;;11.80;99.90;;;;;;5051828;28;20447;-79
2023/09/27 01:05:58;;;;;;;956.30;890.60;;;11.70;99.90;;;;;;5051682;28;20539;-80
2023/09/27 01:08:25;;;;;;;953.37;887.17;;;11.60;99.90;;;;;;5051738;28;20557;-79
2023/09/27 01:10:55;;;;;;;974.80;905.73;;;11.50;99.90;;;;;;5051306;28;20451;-79
2023/09/27 01:13:22;;;;;;;979.80;906.70;;;11.40;99.90;;;;;;5051579;28;20510;-79
2023/09/27 01:15:49;;;;;;;977.77;902.40;;;11.40;99.90;;;;;;5051569;28;20451;-79
2023/09/27 01:18:16;;;;;;;999.83;918.07;;;11.40;99.90;;;;;;5051370;28;20455;-79
2023/09/27 01:20:43;;;;;;;987.73;909.93;;;11.50;99.90;;;;;;5051211;28;20456;-79
2023/09/27 01:23:12;;;;;;;988.43;910.10;;;11.40;99.90;;;;;;5051568;28;20486;-80
2023/09/27 01:25:40;;;;;;;1009.13;922.50;;;11.30;99.90;;;;;;5051321;28;20452;-79
2023/09/27 01:28:08;;;;;;;1015.77;927.27;;;11.50;99.90;;;;;;5051354;28;20961;-80
2023/09/27 01:30:36;;;;;;;1017.43;929.53;;;11.60;99.90;;;;;;5051077;28;21026;-80
2023/09/27 01:33:05;;;;;;;1006.50;920.80;;;11.60;99.90;;;;;;5050775;28;20447;-79
2023/09/27 01:35:33;;;;;;;1013.57;931.67;;;11.50;99.90;;;;;;5051162;28;20447;-79
2023/09/27 01:37:59;;;;;;;1013.03;935.10;;;11.40;99.90;;;;;;5051056;28;20926;-79
2023/09/27 01:40:30;;;;;;;1003.53;927.73;;;11.30;99.90;;;;;;5051013;28;20546;-80
2023/09/27 01:42:57;;;;;;;1004.50;926.00;;;11.20;99.90;;;;;;5050721;28;20475;-80
2023/09/27 01:45:24;;;;;;;1012.60;928.77;;;11.10;99.90;;;;;;5050950;28;20536;-80
2023/09/27 01:47:51;;;;;;;1016.80;927.80;;;11.20;99.90;;;;;;5050876;28;20455;-80
2023/09/27 01:50:19;;;;;;;1025.90;931.63;;;11.30;99.90;;;;;;5050777;28;20452;-80
2023/09/27 01:52:46;;;;;;;1026.07;933.33;;;11.40;99.90;;;;;;5050302;28;20479;-80
2023/09/27 01:55:14;;;;;;;1031.83;940.97;;;11.50;99.90;;;;;;5051056;28;20451;-80
2023/09/27 01:57:42;;;;;;;1028.47;940.43;;;11.40;99.90;;;;;;5050899;28;20547;-79
2023/09/27 02:00:10;;;;;;;1019.93;935.37;;;11.30;99.90;;;;;;5050546;28;20527;-79
2023/09/27 02:02:38;;;;;;;1012.57;929.43;;;11.20;99.90;;;;;;5050428;28;20510;-79
2023/09/27 02:05:05;;;;;;;1004.97;923.63;;;11.20;99.90;;;;;;5050684;28;20451;-79
2023/09/27 02:07:32;;;;;;;1002.00;923.10;;;11.10;99.90;;;;;;5050844;28;20447;-80
2023/09/27 02:09:59;;;;;;;1001.40;921.63;;;11.00;99.90;;;;;;5050528;28;20447;-80
2023/09/27 02:12:26;;;;;;;1015.63;935.60;;;11.00;99.90;;;;;;5050361;28;20889;-80
2023/09/27 02:14:54;;;;;;;1017.97;934.57;;;10.80;99.90;;;;;;5050463;28;20530;-79
2023/09/27 02:17:22;;;;;;;1008.23;927.50;;;10.70;99.90;;;;;;5050949;28;20558;-80
2023/09/27 02:19:49;;;;;;;1018.73;936.00;;;10.80;99.90;;;;;;5050359;28;20491;-79
2023/09/27 02:22:16;;;;;;;1024.80;932.47;;;10.70;99.90;;;;;;5050291;28;21045;-80
2023/09/27 02:24:43;;;;;;;1029.80;933.13;;;10.80;99.90;;;;;;5050599;28;20978;-80
2023/09/27 02:27:10;;;;;;;1023.97;927.27;;;10.80;99.90;;;;;;5050618;28;20451;-79
2023/09/27 02:29:38;;;;;;;1035.40;937.40;;;10.90;99.90;;;;;;5050469;28;20451;-79
2023/09/27 02:32:06;;;;;;;1028.10;929.47;;;10.90;99.90;;;;;;5050410;28;20540;-80
2023/09/27 02:34:33;;;;;;;1034.20;938.60;;;10.90;99.90;;;;;;5050626;28;20489;-80
2023/09/27 02:37:00;;;;;;;1035.70;937.93;;;10.90;99.90;;;;;;5050482;28;20454;-79
2023/09/27 02:39:28;;;;;;;1035.83;935.73;;;10.90;99.90;;;;;;5050269;28;20447;-79
2023/09/27 02:41:57;;;;;;;1027.60;931.23;;;10.90;99.90;;;;;;5049989;28;20882;-80
2023/09/27 02:44:24;;;;;;;1033.47;941.27;;;10.90;99.90;;;;;;5050547;28;20452;-79
2023/09/27 02:46:52;;;;;;;1035.43;943.50;;;10.80;99.90;;;;;;5050542;28;20580;-79
2023/09/27 02:49:20;;;;;;;1035.07;941.33;;;10.70;99.90;;;;;;5050461;28;20447;-79
2023/09/27 02:51:48;;;;;;;1027.10;930.43;;;10.70;99.90;;;;;;5049782;28;20482;-79
2023/09/27 02:54:15;;;;;;;1026.73;929.53;;;10.70;99.90;;;;;;5049656;28;20832;-79
2023/09/27 02:56:43;;;;;;;1024.27;930.83;;;10.80;99.90;;;;;;5050525;28;20534;-79
2023/09/27 02:59:10;;;;;;;1025.67;933.73;;;10.70;99.90;;;;;;5050447;28;20808;-79
2023/09/27 03:01:40;;;;;;;1024.23;931.00;;;10.60;99.90;;;;;;5049829;28;20503;-79
2023/09/27 03:04:07;;;;;;;1011.60;919.20;;;10.70;99.90;;;;;;5053671;28;20478;-80
2023/09/27 03:06:37;;;;;;;1019.43;925.97;;;10.70;99.90;;;;;;5054124;28;20455;-79
2023/09/27 03:09:05;;;;;;;1018.97;923.10;;;10.60;99.90;;;;;;5053954;28;20538;-80
2023/09/27 03:11:33;;;;;;;1023.33;924.60;;;10.80;99.90;;;;;;5053780;28;20525;-79
2023/09/27 03:14:00;;;;;;;1014.43;916.27;;;10.90;99.90;;;;;;5053985;28;20537;-79
2023/09/27 03:16:27;;;;;;;1018.50;919.43;;;10.90;99.90;;;;;;5053458;28;20448;-79
2023/09/27 03:18:54;;;;;;;1018.80;921.70;;;10.90;99.90;;;;;;5053490;28;20887;-79
2023/09/27 03:21:21;;;;;;;1016.97;918.80;;;11.00;99.90;;;;;;5053157;28;21042;-79
2023/09/27 03:23:50;;;;;;;1016.87;920.20;;;10.90;99.90;;;;;;5053819;28;20483;-79
2023/09/27 03:26:17;;;;;;;1012.00;916.10;;;10.90;99.90;;;;;;5053874;28;20883;-79
2023/09/27 03:28:44;;;;;;;1013.23;919.10;;;10.80;99.90;;;;;;5053377;28;20451;-79
2023/09/27 03:31:11;;;;;;;1026.23;930.67;;;10.70;99.90;;;;;;5053177;28;20545;-79
2023/09/27 03:33:38;;;;;;;1024.77;926.50;;;10.60;99.90;;;;;;5053590;28;20814;-79
2023/09/27 03:36:07;;;;;;;1024.77;924.50;;;10.60;99.90;;;;;;5053331;28;20451;-79
2023/09/27 03:38:34;;;;;;;1027.07;926.67;;;10.60;99.90;;;;;;5053578;28;20454;-80
2023/09/27 03:41:02;;;;;;;1018.47;920.50;;;10.60;99.90;;;;;;5052864;28;20447;-80
2023/09/27 03:43:29;;;;;;;1014.10;918.00;;;10.50;99.90;;;;;;5053000;28;21013;-80
2023/09/27 03:45:56;;;;;;;1024.87;926.93;;;10.50;99.90;;;;;;5053240;28;20474;-79
2023/09/27 03:48:23;;;;;;;1018.33;920.33;;;10.50;99.90;;;;;;5053154;28;20927;-79
2023/09/27 03:50:50;;;;;;;1013.73;916.70;;;10.50;99.90;;;;;;5052662;28;20542;-79
2023/09/27 03:53:16;;;;;;;1007.47;910.00;;;10.50;99.90;;;;;;5053019;28;20443;-80
2023/09/27 03:55:43;;;;;;;1004.93;906.90;;;10.50;99.90;;;;;;5053252;28;20479;-80
2023/09/27 03:58:12;;;;;;;994.40;896.20;;;10.50;99.90;;;;;;5053120;28;20461;-79
2023/09/27 04:00:39;;;;;;;1013.70;913.37;;;10.60;99.90;;;;;;5052867;28;20539;-80
2023/09/27 04:03:06;;;;;;;992.63;894.83;;;10.60;99.90;;;;;;5053143;28;20474;-79
2023/09/27 04:05:33;;;;;;;995.97;897.80;;;10.60;99.90;;;;;;5053166;28;20531;-80
2023/09/27 04:08:00;;;;;;;1004.73;904.53;;;10.70;99.90;;;;;;5052808;28;20455;-80
2023/09/27 04:10:28;;;;;;;1007.27;907.77;;;10.70;99.90;;;;;;5052593;28;20454;-78
2023/09/27 04:12:55;;;;;;;1013.03;911.90;;;10.70;99.90;;;;;;5052596;28;20450;-78
2023/09/27 04:15:23;;;;;;;1004.20;902.70;;;10.70;99.90;;;;;;5051853;28;20537;-78
2023/09/27 04:17:50;;;;;;;1004.77;903.30;;;10.70;99.90;;;;;;5052522;28;20826;-78
2023/09/27 04:20:18;;;;;;;1006.43;905.37;;;10.70;99.90;;;;;;5052439;28;20466;-78
2023/09/27 04:22:47;;;;;;;1008.83;905.50;;;10.80;99.90;;;;;;5052333;28;20506;-78
2023/09/27 04:25:14;;;;;;;1000.77;899.30;;;10.80;99.90;;;;;;5052621;28;20452;-78
2023/09/27 04:27:44;;;;;;;1008.90;906.90;;;10.80;99.90;;;;;;5052469;28;20505;-78
2023/09/27 04:30:13;;;;;;;1000.77;896.50;;;10.70;99.90;;;;;;5052066;28;20451;-78
2023/09/27 04:32:43;;;;;;;1016.40;910.70;;;10.60;99.90;;;;;;5052407;28;20939;-78
2023/09/27 04:35:11;;;;;;;1003.37;898.37;;;10.60;99.90;;;;;;5052501;28;20490;-78
2023/09/27 04:37:38;;;;;;;1000.40;896.33;;;10.60;99.90;;;;;;5052416;28;20448;-78
2023/09/27 04:40:09;;;;;;;1002.07;903.40;;;10.50;99.90;;;;;;5052011;28;20947;-78
2023/09/27 04:42:36;;;;;;;1010.17;909.57;;;10.40;99.90;;;;;;5052423;28;20478;-78
2023/09/27 04:45:03;;;;;;;997.73;895.17;;;10.30;99.90;;;;;;5052595;28;20450;-78
2023/09/27 04:47:30;;;;;;;986.40;882.13;;;10.40;99.90;;;;;;5052558;28;20516;-78
2023/09/27 04:50:02;;;;;;;992.80;887.30;;;10.50;99.90;;;;;;5052462;28;20447;-78
2023/09/27 04:52:29;;;;;;;1002.40;895.77;;;10.60;99.90;;;;;;5052244;28;20448;-78
2023/09/27 04:54:56;;;;;;;1010.10;902.43;;;10.50;99.90;;;;;;5052839;28;20455;-78
2023/09/27 04:57:24;;;;;;;1003.57;897.67;;;10.50;99.90;;;;;;5052291;28;20447;-78
2023/09/27 04:59:52;;;;;;;1018.13;911.53;;;10.50;99.90;;;;;;5052213;28;20451;-78
2023/09/27 05:02:19;;;;;;;1025.80;918.43;;;10.50;99.90;;;;;;5051986;28;20454;-78
2023/09/27 05:04:47;;;;;;;1014.73;906.77;;;10.30;99.90;;;;;;5052404;28;20543;-78
2023/09/27 05:07:15;;;;;;;1019.57;911.97;;;10.50;99.90;;;;;;5052519;28;20447;-78
2023/09/27 05:09:42;;;;;;;1002.57;893.40;;;10.50;99.90;;;;;;5051824;28;20448;-78
2023/09/27 05:12:09;;;;;;;1016.20;909.30;;;10.50;99.90;;;;;;5051681;28;21033;-78
2023/09/27 05:14:36;;;;;;;1035.07;924.57;;;10.40;99.90;;;;;;5052223;28;20458;-78
2023/09/27 05:17:03;;;;;;;1013.60;905.00;;;10.50;99.90;;;;;;5051759;28;20461;-78
2023/09/27 05:19:29;;;;;;;1017.37;911.17;;;10.50;99.90;;;;;;5051111;28;20455;-78
2023/09/27 05:21:57;;;;;;;1026.50;921.10;;;10.30;99.90;;;;;;5051397;28;20448;-78
2023/09/27 05:24:25;;;;;;;1036.37;931.37;;;10.10;99.90;;;;;;5051334;28;20482;-78
2023/09/27 05:26:59;;;;;;;1034.87;930.17;;;10.10;99.90;;;;;;5051365;28;20462;-78
2023/09/27 05:29:26;;;;;;;1038.53;930.13;;;10.00;99.90;;;;;;5046933;22;20484;-78
2023/09/27 05:31:53;;;;;;;1022.20;915.93;;;10.00;99.90;;;;;;5034284;28;20444;-78
2023/09/27 05:34:20;;;;;;;1021.13;914.13;;;9.90;99.90;;;;;;5033906;28;20535;-78
2023/09/27 05:36:47;;;;;;;1038.33;929.80;;;10.00;99.90;;;;;;5033841;28;20448;-78
2023/09/27 05:39:14;;;;;;;1026.47;918.30;;;10.10;99.90;;;;;;5033186;28;20526;-78
2023/09/27 05:41:42;;;;;;;1018.83;908.93;;;10.10;99.90;;;;;;5032349;28;20487;-78
2023/09/27 05:44:09;;;;;;;1008.37;899.23;;;10.20;99.90;;;;;;5032564;28;20583;-78
2023/09/27 05:46:37;;;;;;;1004.90;894.10;;;10.30;99.90;;;;;;5032031;28;20456;-78
2023/09/27 05:49:08;;;;;;;1001.07;873.03;;;10.50;99.90;;;;;;5032761;28;20458;-79
2023/09/27 05:51:35;;;;;;;1015.87;880.43;;;10.70;99.90;;;;;;5032204;28;20865;-79
2023/09/27 05:54:02;;;;;;;1015.20;874.63;;;10.90;99.90;;;;;;5032016;28;20476;-78
2023/09/27 05:56:29;;;;;;;1008.87;872.20;;;11.10;99.90;;;;;;5032048;28;20448;-78
2023/09/27 05:58:59;;;;;;;1023.67;872.30;;;11.30;99.90;;;;;;5032312;28;20452;-78
2023/09/27 06:01:26;;;;;;;1008.50;867.67;;;11.50;99.90;;;;;;5032436;28;20448;-78
2023/09/27 06:03:53;;;;;;;1015.07;865.33;;;11.60;99.90;;;;;;5032213;28;20480;-78
2023/09/27 06:06:19;;;;;;;994.50;870.70;;;11.60;99.90;;;;;;5032359;28;20488;-79
2023/09/27 06:08:51;;;;;;;989.20;879.00;;;11.70;99.90;;;;;;5032235;28;20540;-77
2023/09/27 06:11:18;;;;;;;993.55;885.33;;;11.70;99.90;;;;;;5031291;28;20507;-77
2023/09/27 06:13:48;;;;;;;990.77;888.50;;;11.80;99.90;;;;;;5032052;28;20726;-78
2023/09/27 06:16:17;;;;;;;990.97;888.47;;;11.90;99.90;;;;;;5032244;28;20531;-78
2023/09/27 06:18:45;;;;;;;991.50;887.83;;;12.00;99.90;;;;;;5032333;28;20452;-78
2023/09/27 06:21:12;;;;;;;983.60;876.90;;;12.10;99.90;;;;;;5032031;28;20773;-78
2023/09/27 06:23:39;;;;;;;977.63;868.50;;;12.20;99.90;;;;;;5032043;28;20542;-78
2023/09/27 06:26:07;;;;;;;991.57;866.23;;;12.30;99.90;;;;;;5032110;28;20506;-78
2023/09/27 06:28:36;;;;;;;1007.63;861.27;;;12.40;99.90;;;;;;5031041;28;20471;-78
2023/09/27 06:31:05;;;;;;;1000.93;856.57;;;12.70;99.90;;;;;;5031838;28;20471;-78
2023/09/27 06:33:38;;;;;;;986.87;872.47;;;12.80;99.90;;;;;;5031715;28;20924;-78
2023/09/27 06:36:06;;;;;;;996.73;864.33;;;12.90;99.90;;;;;;5031783;28;20464;-78
2023/09/27 06:38:33;;;;;;;1004.07;872.20;;;13.00;99.90;;;;;;5034073;28;20440;-78
2023/09/27 06:41:01;;;;;;;993.77;874.43;;;13.00;99.90;;;;;;5035529;28;20526;-78
2023/09/27 06:43:31;;;;;;;988.07;879.27;;;13.10;99.90;;;;;;5035838;28;20845;-78
2023/09/27 06:46:01;;;;;;;973.20;867.03;;;13.20;99.90;;;;;;5035515;28;20448;-78
2023/09/27 06:48:28;;;;;;;987.93;883.93;;;13.30;99.90;;;;;;5035447;28;20456;-78
2023/09/27 06:50:56;;;;;;;998.72;899.70;;;13.30;99.90;;;;;;5033841;28;20455;-78
2023/09/27 06:53:24;;;;;;;1006.40;915.10;;;13.40;99.90;;;;;;5034788;28;20229;-77
2023/09/27 06:55:53;;;;;;;1002.40;913.40;;;13.50;99.90;;;;;;5035135;28;20452;-77
2023/09/27 06:58:23;;;;;;;1001.13;915.97;;;13.70;99.90;;;;;;5034945;28;20456;-77
2023/09/27 07:00:51;;;;;;;991.23;910.70;;;14.00;99.90;;;;;;5034470;28;20456;-78
2023/09/27 07:03:19;;;;;;;994.23;915.13;;;13.90;99.90;;;;;;5035142;28;20477;-77
2023/09/27 07:05:46;;;;;;;994.20;918.20;;;14.10;99.90;;;;;;5035707;28;20459;-77
2023/09/27 07:08:14;;;;;;;983.47;911.50;;;14.20;99.90;;;;;;5035656;28;20869;-78
2023/09/27 07:10:42;;;;;;;974.58;905.28;;;14.30;99.90;;;;;;5034612;28;20480;-77
2023/09/27 07:13:09;;;;;;;946.03;882.20;;;14.50;99.90;;;;;;5015396;28;20254;-77
2023/09/27 07:15:36;;;;;;;916.60;858.13;;;14.60;99.90;;;;;;5015180;28;20456;-77
2023/09/27 07:18:06;;;;;;;908.10;851.03;;;14.70;99.90;;;;;;5014918;28;20453;-77
2023/09/27 07:20:34;;;;;;;903.20;848.47;;;14.80;99.90;;;;;;5014687;28;20938;-77
2023/09/27 07:23:03;;;;;;;863.73;813.20;;;15.00;99.90;;;;;;5014603;28;20485;-77
2023/09/27 07:25:35;;;;;;;857.27;807.17;;;15.20;99.90;;;;;;5015174;28;20832;-77
2023/09/27 07:28:04;;;;;;;873.00;821.00;;;15.30;99.90;;;;;;5014932;28;20483;-77
2023/09/27 07:30:33;;;;;;;844.37;796.37;;;15.50;99.90;;;;;;5015142;28;20442;-78
2023/09/27 07:33:03;;;;;;;863.97;815.08;;;15.60;99.90;;;;;;5013898;28;20946;-77
2023/09/27 07:35:32;;;;;;;749.22;714.20;;;15.70;99.90;;;;;;5015316;28;20457;-78
2023/09/27 07:38:00;;;;;;;604.27;580.13;;;15.70;99.90;;;;;;5015196;28;20203;-78
2023/09/27 07:40:28;;;;;;;549.70;527.93;;;15.80;99.90;;;;;;5014881;28;20756;-77
2023/09/27 07:42:56;;;;;;;375.27;362.40;;;15.80;99.90;;;;;;5014081;28;20449;-73
2023/09/27 07:45:30;;;;;;;419.77;404.97;;;15.80;99.90;;;;;;5015046;28;20460;-73
2023/09/27 07:47:57;;;;;;;444.03;428.23;;;15.90;99.90;;;;;;5015214;28;20472;-74
2023/09/27 07:50:26;;;;;;;335.07;323.60;;;16.00;99.90;;;;;;5013553;28;20481;-74
2023/09/27 07:52:54;;;;;;;466.77;449.47;;;16.00;99.90;;;;;;5014984;28;20470;-74
2023/09/27 07:55:21;;;;;;;440.77;424.93;;;16.20;99.90;;;;;;5014763;28;20456;-74
2023/09/27 07:57:49;;;;;;;400.23;385.87;;;16.30;99.90;;;;;;5014786;28;20492;-74
2023/09/27 08:00:19;;;;;;;427.10;411.87;;;16.40;99.90;;;;;;5014678;28;20499;-74
2023/09/27 08:02:46;;;;;;;244.53;236.30;;;16.50;99.90;;;;;;5017835;28;20445;-74
2023/09/27 08:05:16;;;;;;;232.80;224.80;;;16.50;99.90;;;;;;5033870;28;20489;-74
2023/09/27 08:07:44;;;;;;;289.07;279.57;;;16.70;99.90;;;;;;5033999;28;20460;-74
2023/09/27 08:10:11;;;;;;;143.17;137.47;;;17.00;99.90;;;;;;5033912;28;20853;-74
2023/09/27 08:12:39;;;;;;;167.63;161.27;;;17.10;99.90;;;;;;5032423;28;20519;-74
2023/09/27 08:15:08;;;;;;;98.70;94.30;;;17.30;99.90;;;;;;5033636;28;20567;-74
2023/09/27 08:17:36;;;;;;;58.00;54.77;;;17.60;99.90;;;;;;5033561;28;20483;-74
2023/09/27 08:20:07;;;;;;;50.53;47.53;;;17.90;99.90;;;;;;5033377;28;20458;-74
2023/09/27 08:22:35;;;;;;;21.43;19.37;;;18.10;99.90;;;;;;5033182;28;20454;-74
2023/09/27 08:25:04;;;;;;;13.57;12.03;;;18.40;99.90;;;;;;5032930;28;20492;-74
2023/09/27 08:27:31;;;;;;;12.63;11.33;;;18.70;99.90;;;;;;5033849;28;20448;-74
2023/09/27 08:30:00;;;;;;;13.30;11.00;;;18.90;99.90;;;;;;5033669;28;20466;-74
2023/09/27 08:32:27;;;;;;;12.80;10.33;;;19.10;99.90;;;;;;5033647;28;20449;-74
2023/09/27 08:34:55;;;;;;;15.70;10.17;;;19.20;99.90;;;;;;5033829;28;20537;-74
2023/09/27 08:37:22;;;;;;;12.70;10.17;;;19.20;99.90;;;;;;5033715;28;20490;-74
2023/09/27 08:39:49;;;;;;;14.63;10.60;;;19.20;99.90;;;;;;5034063;28;20539;-74
2023/09/27 08:42:16;;;;;;;13.10;10.00;;;19.30;99.90;;;;;;5034932;28;20459;-74
2023/09/27 08:44:45;;;;;;;14.23;10.67;;;19.30;99.90;;;;;;5034851;28;20477;-74
2023/09/27 08:47:12;;;;;;;13.00;9.97;;;19.20;99.90;;;;;;5035119;28;20450;-74
2023/09/27 08:49:39;;;;;;;12.93;9.30;;;19.50;99.90;;;;;;5034061;28;20931;-74
2023/09/27 08:52:09;;;;;;;11.33;8.70;;;19.90;98.40;;;;;;5033187;28;20451;-74
2023/09/27 08:54:37;;;;;;;10.70;8.47;;;20.30;95.20;;;;;;5033384;28;20445;-74
2023/09/27 08:57:05;;;;;;;11.77;8.87;;;20.60;94.70;;;;;;5033072;28;20451;-74
2023/09/27 08:59:33;;;;;;;12.90;8.50;;;20.80;86.80;;;;;;5033529;28;20455;-74
2023/09/27 09:02:01;;;;;;;10.07;6.90;;;21.20;87.10;;;;;;5032906;28;20452;-75
2023/09/27 09:04:28;;;;;;;12.30;7.57;;;21.40;79.40;;;;;;5033605;28;20479;-75
2023/09/27 09:06:56;;;;;;;11.20;7.57;;;21.60;71.60;;;;;;5033207;28;20455;-72
2023/09/27 09:09:26;;;;;;;12.40;8.47;;;21.80;71.70;;;;;;5033748;28;20471;-72
2023/09/27 09:11:58;;;;;;;10.97;6.73;;;22.00;71.90;;;;;;5033193;28;20452;-74
2023/09/27 09:14:39;;;;;;;9.23;6.70;;;21.50;71.20;;;;;;5033676;28;20453;-72
2023/09/27 09:17:08;;;;;;;9.67;7.47;;;21.70;71.60;;;;;;5033266;28;20863;-72
2023/09/27 09:19:38;;;;;;;9.53;6.00;;;21.90;71.80;;;;;;5033627;28;20454;-80
2023/09/27 09:22:08;;;;;;;8.57;5.97;;;22.10;67.00;;;;;;5033455;28;20448;-80
2023/09/27 09:24:41;;;;;;;11.27;6.10;;;22.20;65.10;;;;;;5033401;28;20480;-79
2023/09/27 09:27:09;;;;;;;9.73;6.90;;;22.70;64.30;;;;;;5033400;28;20966;-80
2023/09/27 09:29:46;;;;;;;9.10;6.50;;;22.70;55.80;;;;;;5033276;28;20919;-80
2023/09/27 09:32:15;;;;;;;16.63;7.37;;;22.90;55.90;;;;;;5033479;28;20444;-80
2023/09/27 09:34:43;;;;;;;9.80;6.23;;;22.70;55.80;;;;;;5033299;28;20444;-80
2023/09/27 09:37:17;;;;;;;10.05;6.55;;;22.60;55.70;;;;;;5032786;28;20625;-80
2023/09/27 09:39:46;;;;;;;9.73;6.57;;;23.30;56.90;;;;;;5032906;28;20276;-80
2023/09/27 09:42:14;;;;;;;10.70;6.80;;;24.00;48.10;;;;;;5032556;28;20452;-81
2023/09/27 09:44:41;;;;;;;12.20;6.13;;;24.40;39.40;;;;;;5032725;28;20484;-72
2023/09/27 09:47:13;;;;;;;10.10;5.73;;;24.90;39.80;;;;;;5032683;28;20539;-72
2023/09/27 09:49:41;;;;;;;8.10;5.80;;;25.20;31.40;;;;;;5032508;28;20459;-72
2023/09/27 09:52:13;;;;;;;9.03;5.00;;;25.00;30.90;;;;;;5033011;28;20502;-72
2023/09/27 09:54:46;;;;;;;9.50;5.50;;;24.90;30.60;;;;;;5032430;28;20448;-72
2023/09/27 09:57:18;;;;;;;7.33;4.67;;;25.00;30.70;;;;;;5032664;28;20452;-72
2023/09/27 09:59:53;;;;;;;7.70;5.23;;;24.80;30.50;;;;;;5032382;28;20444;-72
2023/09/27 10:02:24;;;;;;;8.60;5.20;;;25.40;31.00;;;;;;5032286;28;20487;-72
2023/09/27 10:04:55;;;;;;;8.37;5.40;;;25.70;23.70;;;;;;5032217;28;20468;-72
2023/09/27 10:07:22;;;;;;;8.07;5.03;;;26.20;23.90;;;;;;5032462;28;20456;-72
2023/09/27 10:09:52;;;;;;;8.73;5.57;;;26.60;24.10;;;;;;5032328;28;20448;-72
2023/09/27 10:12:22;;;;;;;8.47;4.80;;;26.90;16.80;;;;;;5030577;28;20515;-73
2023/09/27 10:14:50;;;;;;;10.40;5.30;;;27.30;17.10;;;;;;5031397;28;20455;-72
2023/09/27 10:17:21;;;;;;;8.03;4.80;;;27.50;9.50;;;;;;5032080;28;20284;-72
2023/09/27 10:20:07;;;;;;;9.23;4.73;;;27.90;9.70;;;;;;5032085;28;20452;-72
2023/09/27 10:22:36;;;;;;;8.13;4.43;;;28.10;9.80;;;;;;5032301;28;20520;-72
2023/09/27 10:25:03;;;;;;;11.53;5.67;;;28.20;4.50;;;;;;5032012;28;20554;-72
2023/09/27 10:28:04;;;;;;;8.63;4.50;;;28.50;2.20;;;;;;5032232;28;20448;-72
2023/09/27 10:30:58;;;;;;;9.50;5.33;;;29.20;2.60;;;;;;5032015;28;20914;-72
2023/09/27 10:33:33;;;;;;;8.40;4.50;;;29.60;1.00;;;;;;5032002;28;20454;-72
2023/09/27 10:36:29;;;;;;;8.07;4.80;;;29.60;1.00;;;;;;5032133;28;20695;-72
2023/09/27 10:39:06;;;;;;;9.23;4.90;;;29.80;1.00;;;;;;5031954;28;20918;-72
2023/09/27 10:41:48;;;;;;;8.20;5.13;;;29.50;1.00;;;;;;5031960;28;20498;-72
2023/09/27 10:44:29;;;;;;;8.17;4.53;;;30.00;1.00;;;;;;5032048;28;20452;-72
2023/09/27 10:46:56;;;;;;;9.33;4.93;;;30.20;1.00;;;;;;5024207;28;20447;-72
2023/09/27 10:49:25;;;;;;;9.43;4.77;;;29.90;1.00;;;;;;5022602;28;20958;-72
2023/09/27 10:51:53;;;;;;;7.43;4.37;;;29.40;1.00;;;;;;5021055;28;20460;-72
2023/09/27 10:54:24;;;;;;;9.10;4.80;;;29.20;1.00;;;;;;5026162;28;21071;-72
2023/09/27 10:56:53;;;;;;;8.87;4.87;;;29.50;1.00;;;;;;5031836;28;20495;-72
2023/09/27 10:59:24;;;;;;;6.77;4.00;;;29.80;1.00;;;;;;5031654;28;20451;-72
2023/09/27 11:01:51;;;;;;;8.27;5.23;;;30.00;1.00;;;;;;5031710;28;20840;-72
2023/09/27 11:04:21;;;;;;;9.63;4.20;;;29.10;1.00;;;;;;5031899;28;20649;-72
2023/09/27 11:06:50;;;;;;;9.27;5.15;;;28.10;1.00;;;;;;5031656;28;20439;-72
2023/09/27 11:09:19;;;;;;;8.37;3.93;;;28.00;1.00;;;;;;5032095;28;20259;-72
2023/09/27 11:11:48;;;;;;;8.73;4.23;;;28.60;1.00;;;;;;5031896;28;20546;-72
2023/09/27 11:14:25;;;;;;;8.10;4.03;;;28.70;1.00;;;;;;5031845;28;20462;-72
2023/09/27 11:16:52;;;;;;;8.00;3.93;;;29.00;1.00;;;;;;5032232;28;20970;-72
2023/09/27 11:19:27;;;;;;;6.50;3.63;;;28.70;1.00;;;;;;5032125;28;20888;-72
2023/09/27 11:21:56;;;;;;;10.73;3.70;;;28.40;1.00;;;;;;5032041;28;20444;-73
2023/09/27 11:24:24;;;;;;;6.57;3.37;;;28.70;1.00;;;;;;5033880;28;20459;-74
2023/09/27 11:26:51;;;;;;;10.83;3.97;;;29.60;1.00;;;;;;5035266;28;20458;-74
2023/09/27 11:29:26;;;;;;;10.20;3.67;;;29.80;1.00;;;;;;5035076;28;20455;-74
2023/09/27 11:31:57;;;;;;;6.60;3.20;;;29.40;1.00;;;;;;5034646;28;20451;-74
2023/09/27 11:34:23;;;;;;;9.27;5.80;;;28.60;1.00;;;;;;5034718;28;20503;-74
2023/09/27 11:36:52;;;;;;;8.67;3.70;;;27.80;1.00;;;;;;5034861;28;20447;-74
2023/09/27 11:39:26;;;;;;;8.60;3.77;;;27.10;1.00;;;;;;5034810;28;20452;-74
2023/09/27 11:41:58;;;;;;;8.53;3.80;;;26.90;1.00;;;;;;5035064;28;20831;-74
2023/09/27 11:44:26;;;;;;;7.60;3.27;;;27.00;1.00;;;;;;5034713;28;20456;-74
2023/09/27 11:47:04;;;;;;;7.50;3.40;;;27.90;1.00;;;;;;5034650;28;20448;-75
2023/09/27 11:49:32;;;;;;;7.00;4.00;;;28.30;1.00;;;;;;5035573;28;20908;-75
2023/09/27 11:51:59;;;;;;;7.53;3.33;;;29.40;1.00;;;;;;5035721;28;20449;-75
2023/09/27 11:54:28;;;;;;;7.30;3.23;;;30.00;1.00;;;;;;5036085;28;20546;-75
2023/09/27 11:56:55;;;;;;;6.00;3.57;;;29.70;1.00;;;;;;5035781;28;20448;-75
2023/09/27 11:59:22;;;;;;;7.93;3.37;;;29.20;1.00;;;;;;5035333;28;20558;-75
2023/09/27 12:01:50;;;;;;;8.60;3.30;;;29.80;1.00;;;;;;5034711;28;20448;-75
2023/09/27 12:04:18;;;;;;;6.80;3.40;;;30.90;1.00;;;;;;5034911;28;20427;-75
2023/09/27 12:06:45;;;;;;;6.80;4.07;;;31.10;1.00;;;;;;5035038;28;20474;-75
2023/09/27 12:09:12;;;;;;;8.00;3.20;;;30.90;1.00;;;;;;5034825;28;20959;-75
2023/09/27 12:11:41;;;;;;;7.30;3.53;;;31.50;1.00;;;;;;5034919;28;20452;-75
2023/09/27 12:14:08;;;;;;;6.40;2.90;;;31.90;1.00;;;;;;5034760;28;20488;-75
2023/09/27 12:16:34;;;;;;;6.50;3.33;;;32.20;1.00;;;;;;5034728;28;20480;-75
2023/09/27 12:19:02;;;;;;;8.40;3.50;;;32.20;1.00;;;;;;5034453;28;20534;-75
2023/09/27 12:21:33;;;;;;;6.93;2.93;;;32.10;1.00;;;;;;5034125;28;20877;-75
2023/09/27 12:24:01;;;;;;;7.30;2.90;;;32.20;1.00;;;;;;5033060;28;20440;-75